LGKV

Details ICAO LGKV (KVA)
Name Kavala Megas Alexandros
Region Greece
Timezone Europe/Athens (UTC+2.0)
Plans Departing 45
Arriving 47
Stats Elevation 18 ft / 5 m (AMSL)
Location 40.914780° 24.618932°
Runways 2
Magnetic Variation 4.893° E
Sunrise 2017-12-15 05:40:26 UTC / 2017-12-15 07:40:26 Local
Sunset 2017-12-15 14:55:39 UTC / 2017-12-15 16:55:39 Local
Advertisement - Login to hide

Runways

ID Width Length Bearing (true) Bearing (mag) Surface Threshold Offset Overrun Length
05L 100 ft / 30 m 9,833 ft / 2,997 m 55.25° 50.36° Asphalt 0 ft / 0 m 930 ft / 283 m
05R 150 ft / 46 m 9,833 ft / 2,997 m 55.25° 50.36° Asphalt 0 ft / 0 m 930 ft / 283 m
23L 150 ft / 46 m 9,833 ft / 2,997 m 235.27° 230.38° Asphalt 0 ft / 0 m 930 ft / 283 m
23R 100 ft / 30 m 9,833 ft / 2,997 m 235.27° 230.38° Asphalt 0 ft / 0 m 930 ft / 283 m

Map

Weather


0- 5 10 15 20 25 30 35+ Temperature / ° C

Clouds and Precipitation
Forecast for 2017-12-15 06:00 UTC. Updated an hour ago

Ground ~20,000 ft ~40,000 ft Winds

METAR

LGKV 150620Z 00000KT CAVOK 04/03 Q1013

TAF

Not found

Frequencies

Tower 118.40 MHz MEGAS ALEXANDROS TWR
Warning: Do not use this data for real-world aviation or navigation. No guarantee of current accuracy is given.